Strona główna
METAR-TAF:

METAR-TAF

Lotnisko :

Port lotniczy Zinder

Zinder, Niger

Szerokość geograficzna: 13-47N, Długość geograficzna: 008-59E, wysokość: 452 m

Aktualna obserwacja pogody

Raport powstał 58 minut temu, godzina 13:00 UTC
Wiatr 11 kt od zachód
Temperatura 36°C
Wilgotność 39%
Ciśnienie 1012 hPa
Widzialność: 3500 m
pył,

METAR: DRZR 211300Z 26011KT 3500 DU NSC 36/20 Q1012

czas: 14:58 (13:58 UTC)

Prognoza

Raport powstał 2 godziny i 58 minut temu, godzina 11:00 UTC
Prognoza ważna od 21 godzina 12 UTC do 22 godzina 12 UTC
Wiatr 10 kt od zachód
Widzialność: 4000 m
Mało chmury na wysokości 3300 ft
pył
Prawdopodobieństwo 40% :
Przejściowo
od 21 godzina 17 UTC do 21 godzina 20 UTC
Mało chmury na wysokości 3000 ft
Mało chmury na wysokości 3300 ft, Cumulonimbus.
burza
Stopniowe zmiany
od 21 godzina 20 UTC do 21 godzina 22 UTC
Widzialność: 6000 m

TAF: DRZR 211100Z 2112/2212 26010KT 4000 DU FEW033 PROB40 TEMPO 2117/2120 TS FEW030 FEW033CB BECMG 2120/2122 6000 NSC

Obserwacja i prognoza pogody dla ponad 4000 lotnisk (raport METAR i TAF).

Dostępne stacje oznaczono żółtymi i czerwonymi punktami na mapie.

Najedź kursorem aby zobaczyć nazwę stacji.

Kliknij aby zobaczyć obserwacje i prognozy pogody.

Aby zmienić mapę: kliknij na zielony przycisk z czarnym krzyżykiem, aby powiększyć; na zielony przycisk z myślnikiem, aby pomniejszyć; na zielone strzałki, aby przejść do map sąsiednich.


METAR-TAF: